Time;durP1;ratioP1;P1;durP2;ratioP2;P2;SDS_P1;SDS_P2;PMS_P1;PMS_P2;Temp;Humidity;BMP_temperature;BMP_pressure;BME280_temperature;BME280_humidity;BME280_pressure;Samples;Min_cycle;Max_cycle;Signal;HPM_P1;HPM_P2
2022/04/20 00:00:14;;;;;;;3.40;2.30;;;;;;;10.13;62.57;99916.28;5056975;28;20217;-57
2022/04/20 00:02:39;;;;;;;3.50;2.20;;;;;;;10.14;62.85;99910.25;5059238;28;20199;-56
2022/04/20 00:05:04;;;;;;;2.63;2.43;;;;;;;10.11;nan;99916.31;5063290;28;20209;-55
2022/04/20 00:07:30;;;;;;;2.47;2.17;;;;;;;10.10;62.44;99913.75;5054580;28;20189;-57
2022/04/20 00:09:55;;;;;;;3.50;2.90;;;;;;;10.09;62.52;99915.47;5065445;28;20276;-57
2022/04/20 00:12:20;;;;;;;3.30;2.40;;;;;;;10.07;62.42;99920.66;5059607;28;20569;-55
2022/04/20 00:14:46;;;;;;;3.03;2.50;;;;;;;10.03;62.71;99913.84;5062850;28;20315;-57
2022/04/20 00:17:11;;;;;;;2.83;2.20;;;;;;;10.00;62.73;99911.28;5060887;28;20662;-55
2022/04/20 00:19:37;;;;;;;2.93;2.20;;;;;;;9.96;62.94;99913.94;5054173;28;20214;-56
2022/04/20 00:22:03;;;;;;;2.57;2.37;;;;;;;9.90;63.21;99910.53;5061296;28;20272;-57
2022/04/20 00:24:29;;;;;;;3.30;2.40;;;;;;;9.89;63.42;99905.41;5056845;28;20251;-54
2022/04/20 00:26:54;;;;;;;3.10;2.47;;;;;;;9.85;63.77;99916.66;5062017;28;20671;-57
2022/04/20 00:29:19;;;;;;;3.63;2.67;;;;;;;9.80;64.07;99911.53;5055138;28;20191;-56
2022/04/20 00:31:45;;;;;;;3.00;2.37;;;;;;;9.74;63.83;99914.19;5065007;28;20654;-55
2022/04/20 00:34:10;;;;;;;2.60;2.40;;;;;;;9.70;64.20;99915.06;5054628;28;20689;-56
2022/04/20 00:36:36;;;;;;;5.37;2.33;;;;;;;9.65;64.70;99904.81;5057400;28;20197;-58
2022/04/20 00:39:01;;;;;;;3.03;2.20;;;;;;;9.63;64.52;99905.69;5058366;28;20667;-57
2022/04/20 00:41:27;;;;;;;3.73;2.30;;;;;;;9.57;64.19;99909.22;5054901;28;20696;-57
2022/04/20 00:43:53;;;;;;;2.70;2.20;;;;;;;9.52;64.80;99903.22;5053996;28;20288;-56
2022/04/20 00:46:19;;;;;;;2.27;2.00;;;;;;;9.46;63.85;99910.16;5055754;28;20299;-56
2022/04/20 00:48:45;;;;;;;5.27;2.50;;;;;;;9.45;64.07;99913.63;5058948;28;20191;-57
2022/04/20 00:51:11;;;;;;;4.17;2.30;;;;;;;9.38;64.71;99905.94;5053744;28;20220;-58
2022/04/20 00:53:36;;;;;;;3.07;2.27;;;;;;;9.36;64.07;99903.38;5055014;28;20232;-56
2022/04/20 00:56:02;;;;;;;3.70;2.10;;;;;;;9.31;64.51;99902.56;5056789;28;20204;-55
2022/04/20 00:58:27;;;;;;;2.63;2.30;;;;;;;9.21;64.22;99899.25;5058943;28;20296;-58
2022/04/20 01:00:52;;;;;;;2.83;2.43;;;;;;;9.24;64.26;99895.78;5055380;28;20239;-57
2022/04/20 01:03:18;;;;;;;3.13;2.13;;;;;;;9.20;64.39;99902.69;5059803;28;20273;-55
2022/04/20 01:05:43;;;;;;;3.10;2.63;;;;;;;9.20;63.60;99910.44;5059262;28;20378;-55
2022/04/20 01:08:09;;;;;;;2.47;2.20;;;;;;;9.14;64.39;99902.75;5054652;28;20618;-57
2022/04/20 01:10:34;;;;;;;2.93;2.63;;;;;;;9.13;63.99;99901.03;5062059;28;20272;-57
2022/04/20 01:13:00;;;;;;;4.63;2.30;;;;;;;9.09;64.88;99892.47;5062012;28;20667;-56
2022/04/20 01:15:25;;;;;;;2.50;2.30;;;;;;;8.99;65.01;99899.44;5055071;28;20720;-57
2022/04/20 01:17:50;;;;;;;6.07;2.50;;;;;;;8.92;64.89;99907.25;5049386;28;20201;-55
2022/04/20 01:20:16;;;;;;;3.27;2.30;;;;;;;8.93;64.59;99903.78;5057959;28;20233;-55
2022/04/20 01:22:42;;;;;;;2.87;2.20;;;;;;;8.81;65.13;99909.91;5061418;28;20196;-57
2022/04/20 01:25:08;;;;;;;3.40;2.50;;;;;;;8.75;65.92;99900.47;5056498;28;20236;-56
2022/04/20 01:27:35;;;;;;;3.07;2.30;;;;;;;8.65;66.01;99909.16;5064565;28;20229;-57
2022/04/20 01:30:00;;;;;;;3.00;2.20;;;;;;;8.60;66.00;99901.47;5055849;28;20636;-56
2022/04/20 01:32:26;;;;;;;2.70;2.03;;;;;;;8.56;66.80;99899.78;5051330;28;20545;-56
2022/04/20 01:34:52;;;;;;;2.60;2.33;;;;;;;8.47;67.47;99912.72;5052760;28;20190;-56
2022/04/20 01:37:18;;;;;;;3.67;1.93;;;;;;;8.38;68.03;99909.31;5058771;28;20670;-56
2022/04/20 01:39:43;;;;;;;3.50;2.20;;;;;;;8.38;67.49;99899.00;5056465;28;20225;-57
2022/04/20 01:42:10;;;;;;;2.93;2.20;;;;;;;8.35;67.86;99908.47;5058071;28;20218;-58
2022/04/20 01:44:36;;;;;;;2.57;2.17;;;;;;;8.29;68.35;99895.59;5056576;28;20565;-56
2022/04/20 01:47:02;;;;;;;4.13;2.20;;;;;;;8.15;68.72;99899.13;5056997;28;20214;-56
2022/04/20 01:49:27;;;;;;;2.17;1.97;;;;;;;8.09;69.00;99905.16;5050841;28;20666;-56
2022/04/20 01:51:54;;;;;;;2.53;2.33;;;;;;;8.03;69.21;99897.44;5055605;28;20640;-55
2022/04/20 01:54:19;;;;;;;3.60;2.13;;;;;;;7.92;69.72;99900.09;5055406;28;20197;-57
2022/04/20 01:56:47;;;;;;;2.50;2.03;;;;;;;7.94;69.71;99892.34;5050611;28;20187;-55
2022/04/20 01:59:13;;;;;;;4.67;2.37;;;;;;;7.85;69.56;99895.81;5054548;28;20307;-56
2022/04/20 02:04:22;;;;;;;3.13;2.27;;;;;;;7.86;70.11;99889.81;5057754;28;20269;-56
2022/04/20 02:06:48;;;;;;;3.47;2.33;;;;;;;7.79;70.51;99890.69;5055645;28;20217;-56
2022/04/20 02:09:13;;;;;;;2.77;2.50;;;;;;;7.76;71.17;99907.03;5052163;28;20209;-56
2022/04/20 02:11:39;;;;;;;2.60;2.40;;;;;;;7.74;71.30;99892.44;5060712;28;20216;-56
2022/04/20 02:14:04;;;;;;;2.60;2.20;;;;;;;7.71;71.32;99893.31;5058605;28;20184;-56
2022/04/20 02:16:30;;;;;;;3.60;2.50;;;;;;;7.65;71.70;99893.31;5053944;28;20200;-56
2022/04/20 02:18:56;;;;;;;2.30;2.10;;;;;;;7.63;71.59;99903.66;5055349;28;20186;-56
2022/04/20 02:21:21;;;;;;;4.10;2.60;;;;;;;7.58;72.10;99894.19;5057037;28;21591;-57
2022/04/20 02:23:47;;;;;;;3.63;2.33;;;;;;;7.59;72.47;99893.34;5054671;28;20193;-57
2022/04/20 02:26:12;;;;;;;3.97;2.77;;;;;;;7.54;72.31;99883.06;5053305;28;20412;-54
2022/04/20 02:28:37;;;;;;;3.23;2.87;;;;;;;7.59;72.16;99895.91;5051808;28;20193;-56
2022/04/20 02:31:03;;;;;;;3.77;2.73;;;;;;;7.53;72.55;99889.06;5050882;28;20657;-54
2022/04/20 02:33:29;;;;;;;4.00;3.10;;;;;;;7.59;72.73;99889.06;5049708;28;20195;-57
2022/04/20 02:35:57;;;;;;;2.67;2.47;;;;;;;7.64;72.84;99889.03;5053743;28;20188;-57
2022/04/20 02:38:22;;;;;;;4.40;2.90;;;;;;;7.71;72.90;99900.19;5057340;28;20245;-58
2022/04/20 02:40:50;;;;;;;3.20;2.87;;;;;;;7.77;72.79;99877.81;5054734;28;20210;-54
2022/04/20 02:43:16;;;;;;;3.60;2.90;;;;;;;7.79;72.90;99882.97;5050076;28;20568;-56
2022/04/20 02:45:41;;;;;;;3.87;3.37;;;;;;;7.82;73.29;99900.97;5050258;28;20207;-58
2022/04/20 02:48:07;;;;;;;3.20;2.70;;;;;;;7.82;73.72;99890.69;5052701;28;20202;-57
2022/04/20 02:50:32;;;;;;;4.60;3.20;;;;;;;7.75;73.96;99891.59;5057868;28;20685;-57
2022/04/20 02:52:58;;;;;;;4.20;3.43;;;;;;;7.70;74.95;99901.03;5056191;28;20698;-57
2022/04/20 02:55:24;;;;;;;3.80;3.50;;;;;;;7.66;75.20;99913.06;5058903;28;20626;-58
2022/04/20 02:57:49;;;;;;;4.87;3.57;;;;;;;7.64;75.19;99907.06;5057239;28;20657;-58
2022/04/20 03:00:16;;;;;;;3.97;3.57;;;;;;;7.62;75.95;99903.63;5056099;28;20208;-57
2022/04/20 03:02:41;;;;;;;5.10;3.50;;;;;;;7.61;75.97;99910.53;5055290;28;20279;-57
2022/04/20 03:05:07;;;;;;;3.87;3.37;;;;;;;7.60;76.06;99902.78;5055877;28;20301;-55
2022/04/20 03:07:33;;;;;;;5.00;3.70;;;;;;;7.60;76.26;99902.78;5053659;28;20478;-58
2022/04/20 03:09:58;;;;;;;3.87;3.43;;;;;;;7.57;77.13;99906.22;5054815;28;20220;-56
2022/04/20 03:12:24;;;;;;;5.07;3.50;;;;;;;7.56;76.54;99913.97;5052288;28;20274;-57
2022/04/20 03:14:51;;;;;;;4.63;4.00;;;;;;;7.53;76.68;99912.25;5056654;28;20645;-58
2022/04/20 03:17:17;;;;;;;3.97;3.50;;;;;;;7.50;76.88;99921.69;5057762;28;20208;-56
2022/04/20 03:19:42;;;;;;;4.23;3.20;;;;;;;7.46;76.89;99929.41;5049347;28;20207;-58
2022/04/20 03:22:07;;;;;;;4.53;3.53;;;;;;;7.42;77.38;99929.44;5060348;28;20182;-56
2022/04/20 03:24:33;;;;;;;5.40;3.20;;;;;;;7.38;77.50;99938.00;5050527;28;20201;-56
2022/04/20 03:26:58;;;;;;;3.97;3.57;;;;;;;7.38;77.70;99932.88;5051557;28;20223;-56
2022/04/20 03:29:23;;;;;;;4.47;3.60;;;;;;;7.30;78.30;99933.75;5052915;28;20201;-55
2022/04/20 03:31:49;;;;;;;5.07;3.70;;;;;;;7.21;78.64;99946.59;5057282;28;20231;-56
2022/04/20 03:34:14;;;;;;;6.63;4.67;;;;;;;7.16;79.18;99948.34;5051909;28;20208;-57
2022/04/20 03:36:40;;;;;;;4.87;3.83;;;;;;;7.19;78.91;99934.63;5050361;28;20286;-57
2022/04/20 03:39:06;;;;;;;3.93;3.53;;;;;;;7.14;78.75;99944.91;5055762;28;20266;-57
2022/04/20 03:41:31;;;;;;;5.27;4.20;;;;;;;7.15;78.62;99950.03;5052462;28;20248;-57
2022/04/20 03:43:57;;;;;;;5.10;3.50;;;;;;;7.10;78.79;99938.91;5049745;28;20217;-54
2022/04/20 03:46:23;;;;;;;4.50;3.70;;;;;;;7.13;79.45;99941.47;5052656;28;20224;-56
2022/04/20 03:48:49;;;;;;;4.20;3.80;;;;;;;7.15;79.57;99944.06;5054439;28;20207;-56
2022/04/20 03:51:15;;;;;;;4.23;3.83;;;;;;;7.14;79.36;99947.50;5058809;28;20695;-57
2022/04/20 03:53:40;;;;;;;4.40;4.00;;;;;;;7.14;79.30;99944.91;5049245;28;20211;-55
2022/04/20 03:56:05;;;;;;;4.17;3.87;;;;;;;7.17;79.84;99953.47;5067241;28;20185;-56
2022/04/20 03:58:31;;;;;;;4.07;3.77;;;;;;;7.21;79.73;99941.47;5057515;28;20242;-56
2022/04/20 04:00:56;;;;;;;6.20;3.87;;;;;;;7.20;78.97;99946.63;5062866;28;20222;-57
2022/04/20 04:03:21;;;;;;;4.47;3.60;;;;;;;7.20;78.95;99951.78;5055458;28;20712;-57
2022/04/20 04:05:47;;;;;;;4.67;4.00;;;;;;;7.22;78.81;99943.19;5062742;28;20299;-56
2022/04/20 04:08:13;;;;;;;4.80;4.37;;;;;;;7.22;79.20;99950.91;5058705;28;20193;-58
2022/04/20 04:10:38;;;;;;;4.63;3.90;;;;;;;7.23;79.18;99957.78;5056982;28;20280;-58
2022/04/20 04:13:03;;;;;;;4.03;3.73;;;;;;;7.18;79.33;99946.63;5068307;28;20568;-58
2022/04/20 04:15:29;;;;;;;4.93;4.13;;;;;;;7.15;79.63;99950.03;5064805;28;20264;-55
2022/04/20 04:17:58;;;;;;;6.33;4.23;;;;;;;7.11;79.85;99940.59;5059409;28;20193;-56
2022/04/20 04:20:26;;;;;;;4.20;3.90;;;;;;;7.08;80.16;99948.34;5056436;28;20749;-58
2022/04/20 04:22:52;;;;;;;4.60;4.20;;;;;;;7.10;79.74;99940.63;5050133;28;20187;-58
2022/04/20 04:25:18;;;;;;;4.23;3.83;;;;;;;7.10;79.68;99935.47;5055280;28;20214;-58
2022/04/20 04:27:44;;;;;;;5.37;4.00;;;;;;;7.11;79.71;99939.75;5053172;28;20683;-55
2022/04/20 04:30:10;;;;;;;6.10;4.10;;;;;;;7.14;79.59;99945.75;5051623;28;20218;-56
2022/04/20 04:32:36;;;;;;;4.17;3.80;;;;;;;7.11;79.78;99942.34;5056808;28;20587;-56
2022/04/20 04:35:01;;;;;;;5.27;4.20;;;;;;;7.10;79.76;99946.63;5052228;28;20199;-56
2022/04/20 04:37:27;;;;;;;5.97;3.90;;;;;;;7.11;79.72;99940.59;5051797;28;20729;-57
2022/04/20 04:39:53;;;;;;;4.30;3.90;;;;;;;7.15;79.96;99933.75;5055622;28;20243;-57
2022/04/20 04:42:19;;;;;;;5.00;4.20;;;;;;;7.13;80.07;99931.16;5058324;28;20245;-56
2022/04/20 04:44:44;;;;;;;4.80;4.00;;;;;;;7.13;80.02;99935.47;5054017;28;20691;-56
2022/04/20 04:49:53;;;;;;;6.83;4.43;;;;;;;7.15;79.51;99944.91;5067684;28;20263;-56
2022/04/20 04:52:19;;;;;;;8.27;4.30;;;;;;;7.16;80.00;99956.06;5068751;28;20661;-58
2022/04/20 04:54:44;;;;;;;4.97;4.00;;;;;;;7.18;80.03;99956.94;5057638;28;20199;-55
2022/04/20 04:57:12;;;;;;;5.03;4.10;;;;;;;7.20;80.11;99957.75;5059746;28;20191;-54
2022/04/20 04:59:38;;;;;;;4.97;4.20;;;;;;;7.26;79.86;99952.63;5063705;28;20210;-57
2022/04/20 05:02:04;;;;;;;4.40;4.00;;;;;;;7.29;79.63;99960.34;5061751;28;20669;-56
2022/04/20 05:04:30;;;;;;;4.60;4.20;;;;;;;7.32;79.20;99965.50;5058865;28;20204;-56
2022/04/20 05:06:58;;;;;;;5.00;4.20;;;;;;;7.36;78.94;99950.91;5056570;28;20215;-57
2022/04/20 05:09:24;;;;;;;4.47;4.07;;;;;;;7.37;79.44;99962.91;5059593;28;20527;-57
2022/04/20 05:11:49;;;;;;;8.33;4.17;;;;;;;7.39;78.45;99966.34;5062885;28;20193;-57
2022/04/20 05:14:16;;;;;;;4.63;3.30;;;;;;;7.51;77.87;99959.47;5056163;28;20188;-55
2022/04/20 05:16:44;;;;;;;5.83;4.00;;;;;;;7.66;77.88;99964.59;5058040;28;20201;-57
2022/04/20 05:19:10;;;;;;;4.80;3.77;;;;;;;7.82;77.21;99969.69;5053573;28;20204;-56
2022/04/20 05:21:35;;;;;;;5.23;4.60;;;;;;;7.92;77.22;99956.78;5058683;28;20192;-57
2022/04/20 05:24:01;;;;;;;4.03;3.67;;;;;;;7.96;75.99;99967.06;5058077;28;20200;-56
2022/04/20 05:26:26;;;;;;;5.13;3.97;;;;;;;8.23;74.83;99956.66;5058590;28;20212;-58
2022/04/20 05:28:54;;;;;;;5.87;3.83;;;;;;;8.95;72.37;99966.59;5054550;28;20194;-56
2022/04/20 05:31:20;;;;;;;4.20;3.50;;;;;;;9.79;71.01;99960.63;5055609;28;20470;-56
2022/04/20 05:33:45;;;;;;;4.03;3.63;;;;;;;10.42;67.87;99959.91;5063620;28;20197;-56
2022/04/20 05:36:12;;;;;;;4.53;3.93;;;;;;;10.77;66.00;99966.31;5056905;28;20193;-56
2022/04/20 05:41:40;;;;;;;6.33;3.10;;;;;;;11.83;63.20;99957.59;5054951;28;20268;-55
2022/04/20 05:44:10;;;;;;;4.30;3.30;;;;;;;12.22;62.37;99956.88;5054827;28;20182;-55
2022/04/20 05:46:36;;;;;;;3.40;3.13;;;;;;;11.97;62.26;99953.88;5053084;28;20212;-56
2022/04/20 05:49:02;;;;;;;3.23;2.90;;;;;;;12.20;62.12;99962.06;5053792;28;20191;-55
2022/04/20 05:51:28;;;;;;;3.07;2.83;;;;;;;12.34;61.54;99969.56;5055939;28;20308;-55
2022/04/20 05:53:53;;;;;;;7.67;3.07;;;;;;;12.79;60.28;99975.50;5052809;28;20190;-57
2022/04/20 05:56:19;;;;;;;4.00;3.07;;;;;;;13.24;59.11;99982.22;5057042;28;20620;-56
2022/04/20 05:58:50;;;;;;;4.63;2.93;;;;;;;14.01;58.52;99962.00;5057177;28;20652;-56
2022/04/20 06:01:17;;;;;;;4.57;3.27;;;;;;;14.22;57.62;99966.66;5059210;28;21802;-55
2022/04/20 06:03:42;;;;;;;5.23;3.53;;;;;;;13.97;58.78;99975.16;5053034;28;20190;-55
2022/04/20 06:06:07;;;;;;;4.93;3.50;;;;;;;13.96;59.41;99979.53;5057280;28;20410;-55
2022/04/20 06:08:35;;;;;;;7.53;4.33;;;;;;;13.28;61.52;99978.66;5056416;28;20234;-55
2022/04/20 06:11:00;;;;;;;4.40;3.93;;;;;;;13.23;61.87;99981.38;5057867;28;20269;-56
2022/04/20 06:13:28;;;;;;;4.07;3.67;;;;;;;13.27;61.73;99980.41;5055255;28;20197;-56
2022/04/20 06:15:54;;;;;;;6.33;3.40;;;;;;;13.56;60.80;99967.56;5057618;28;20191;-54
2022/04/20 06:18:20;;;;;;;4.63;4.07;;;;;;;13.41;60.94;99969.69;5055807;28;20195;-54
2022/04/20 06:20:46;;;;;;;4.90;4.17;;;;;;;13.56;60.95;99967.56;5058946;28;20237;-56
2022/04/20 06:23:11;;;;;;;3.60;3.30;;;;;;;14.27;59.56;99976.03;5060916;28;20189;-57
2022/04/20 06:25:36;;;;;;;4.63;3.90;;;;;;;13.96;59.94;99979.53;5050902;28;20629;-57
2022/04/20 06:28:02;;;;;;;4.80;4.00;;;;;;;13.52;60.46;99978.97;5057270;28;20181;-54
2022/04/20 06:30:28;;;;;;;3.80;3.50;;;;;;;13.66;60.49;99969.06;5064338;28;20300;-55
2022/04/20 06:32:53;;;;;;;6.10;3.80;;;;;;;13.86;60.32;99967.63;5055789;28;20276;-55
2022/04/20 06:35:19;;;;;;;5.63;3.77;;;;;;;13.93;59.83;99970.94;5056185;28;20183;-55
2022/04/20 06:37:45;;;;;;;5.20;4.10;;;;;;;13.87;60.28;99977.16;5055473;28;20249;-55
2022/04/20 06:40:10;;;;;;;4.43;3.83;;;;;;;13.99;60.15;99973.38;5050230;28;20986;-54
2022/04/20 06:42:36;;;;;;;4.47;4.00;;;;;;;13.90;60.32;99976.25;5058937;28;20282;-55
2022/04/20 06:45:03;;;;;;;4.90;3.90;;;;;;;14.06;60.36;99971.44;5053443;28;20187;-55
2022/04/20 06:47:29;;;;;;;4.47;3.87;;;;;;;14.03;59.48;99972.38;5048445;28;20201;-55
2022/04/20 06:49:55;;;;;;;4.00;3.60;;;;;;;14.16;59.61;99972.88;5054383;28;20306;-55
2022/04/20 07:00:33;;;;;;;3.23;2.93;;;;;;;14.06;59.39;99984.44;5060380;28;20231;-57
2022/04/20 07:03:00;;;;;;;4.37;3.50;;;;;;;13.77;59.82;99973.09;5061755;28;20640;-57
2022/04/20 07:05:25;;;;;;;4.00;3.60;;;;;;;13.79;59.95;99972.16;5058787;28;20208;-57
2022/04/20 07:07:51;;;;;;;3.73;3.40;;;;;;;14.44;58.63;99974.69;5058706;28;20185;-56
2022/04/20 07:10:16;;;;;;;4.23;3.27;;;;;;;14.01;57.52;99993.22;5061895;28;20223;-56
2022/04/20 07:12:41;;;;;;;3.70;3.00;;;;;;;13.83;58.99;99976.38;5053168;28;20189;-55
2022/04/20 07:15:07;;;;;;;4.80;3.27;;;;;;;13.76;58.74;99979.19;5055809;28;20187;-55
2022/04/20 07:17:32;;;;;;;4.43;3.30;;;;;;;13.73;59.14;99980.16;5060651;28;20665;-57
2022/04/20 07:20:00;;;;;;;5.83;3.90;;;;;;;13.32;58.73;99992.41;5060002;28;20688;-55
2022/04/20 07:22:26;;;;;;;3.77;3.10;;;;;;;12.95;59.57;99982.06;5056750;28;20206;-56
2022/04/20 07:24:51;;;;;;;9.47;3.83;;;;;;;12.82;60.07;99978.03;5056686;28;20194;-55
2022/04/20 07:27:16;;;;;;;5.37;3.47;;;;;;;12.95;60.95;99984.66;5065414;28;21193;-56
2022/04/20 07:29:42;;;;;;;7.23;3.60;;;;;;;13.11;60.27;99992.09;5060385;28;20234;-57
2022/04/20 07:32:08;;;;;;;3.77;2.97;;;;;;;13.25;58.40;99981.31;5058243;28;20193;-56
2022/04/20 07:34:33;;;;;;;4.30;3.03;;;;;;;13.25;57.95;99995.19;5054460;28;20636;-55
2022/04/20 07:36:58;;;;;;;4.13;2.80;;;;;;;13.09;58.07;99979.09;5057240;28;20551;-56
2022/04/20 07:39:23;;;;;;;3.73;3.00;;;;;;;12.97;58.06;99979.41;5060618;28;20285;-56
2022/04/20 07:41:49;;;;;;;3.73;2.67;;;;;;;12.75;59.07;99979.06;5059546;28;20193;-57
2022/04/20 07:44:14;;;;;;;5.17;3.00;;;;;;;12.53;58.84;99979.56;5055127;28;20190;-56
2022/04/20 07:46:39;;;;;;;3.20;2.90;;;;;;;12.52;59.32;99983.03;5049928;28;20216;-56
2022/04/20 07:50:18;;;;;;;3.70;2.77;;;;;;;12.45;59.03;99982.31;5058725;28;20182;-56
2022/04/20 07:51:50;;;;;;;3.17;2.70;;;;;;;12.32;59.49;99979.13;5051403;28;20900;-55
2022/04/20 07:54:16;;;;;;;3.30;3.00;;;;;;;12.31;60.42;99974.81;5053847;28;20182;-56
2022/04/20 07:56:41;;;;;;;3.20;2.90;;;;;;;12.27;59.10;99983.53;5053845;28;20535;-54
2022/04/20 07:59:06;;;;;;;5.33;3.30;;;;;;;12.20;59.35;99987.16;5055915;28;20661;-56
2022/04/20 08:01:32;;;;;;;3.40;3.10;;;;;;;12.15;60.32;99971.69;5052647;28;20182;-57
2022/04/20 08:03:58;;;;;;;3.60;3.13;;;;;;;11.92;60.10;99974.72;5056725;28;20671;-56
2022/04/20 08:06:23;;;;;;;4.20;2.90;;;;;;;12.06;60.18;99989.19;5055590;28;20675;-56
2022/04/20 08:08:49;;;;;;;4.00;2.90;;;;;;;12.07;59.78;99991.75;5056361;28;20422;-56
2022/04/20 08:11:14;;;;;;;18.17;4.77;;;;;;;12.10;60.66;99973.53;5063440;28;20217;-56
2022/04/20 08:16:23;;;;;;;5.43;3.20;;;;;;;11.92;61.98;99985.09;5050903;28;20201;-56
2022/04/20 08:18:49;;;;;;;4.60;2.67;;;;;;;11.83;61.64;99980.94;5055442;28;20182;-56
2022/04/20 08:21:14;;;;;;;4.20;2.93;;;;;;;11.74;60.83;99974.19;5050298;28;20296;-56
2022/04/20 08:23:39;;;;;;;4.50;2.90;;;;;;;11.74;61.69;99971.59;5059853;28;20562;-56
2022/04/20 08:26:05;;;;;;;3.70;3.03;;;;;;;11.77;61.13;99983.63;5056882;28;20728;-57
2022/04/20 08:28:31;;;;;;;4.57;2.77;;;;;;;11.76;61.24;99975.91;5055033;28;20194;-56
2022/04/20 08:30:56;;;;;;;4.97;3.00;;;;;;;11.70;60.56;99985.50;5066464;28;20563;-56
2022/04/20 08:33:21;;;;;;;3.40;3.10;;;;;;;11.64;60.54;99980.44;5058826;28;20408;-57
2022/04/20 08:35:47;;;;;;;5.97;3.50;;;;;;;11.58;60.61;99981.38;5062806;28;20218;-57
2022/04/20 08:38:13;;;;;;;3.57;2.80;;;;;;;11.69;62.26;99982.94;5060977;28;20629;-57
2022/04/20 08:40:39;;;;;;;3.23;2.70;;;;;;;11.71;60.59;99983.78;5059246;28;20276;-57
2022/04/20 08:43:08;;;;;;;3.97;2.80;;;;;;;11.74;61.22;99984.56;5058562;28;20194;-57
2022/04/20 08:45:37;;;;;;;4.57;3.20;;;;;;;11.73;61.45;99989.75;5058787;28;20656;-57
2022/04/20 08:48:04;;;;;;;4.17;2.90;;;;;;;11.71;59.37;99976.84;5056904;28;20209;-54
2022/04/20 08:50:29;;;;;;;4.53;3.20;;;;;;;11.67;59.79;99988.13;5057998;28;20304;-57
2022/04/20 08:52:55;;;;;;;3.27;2.90;;;;;;;11.80;60.85;99988.78;5059864;28;20585;-57
2022/04/20 08:55:21;;;;;;;3.67;3.10;;;;;;;11.90;59.27;99981.69;5062444;28;20648;-56
2022/04/20 08:57:49;;;;;;;4.33;2.80;;;;;;;11.89;59.73;99995.53;5055786;28;20248;-56
2022/04/20 09:00:21;;;;;;;3.40;3.07;;;;;;;11.80;58.97;99993.97;5054382;28;20638;-56
2022/04/20 09:02:47;;;;;;;3.97;2.90;;;;;;;11.70;58.68;99976.88;5063687;28;20190;-56
2022/04/20 09:05:12;;;;;;;3.70;3.07;;;;;;;11.74;58.13;99986.28;5060469;28;20190;-55
2022/04/20 09:07:38;;;;;;;3.13;2.90;;;;;;;11.82;58.66;100022.44;5056016;28;20284;-56
2022/04/20 09:10:04;;;;;;;3.30;3.00;;;;;;;11.80;58.78;100006.06;5061690;28;20336;-56
2022/04/20 09:12:29;;;;;;;15.83;3.97;;;;;;;11.79;58.82;99987.06;5059337;28;20198;-56
2022/04/20 09:14:56;;;;;;;13.07;4.13;;;;;;;11.80;59.21;99982.75;5063166;28;20189;-57
2022/04/20 09:17:24;;;;;;;3.40;3.10;;;;;;;11.92;60.03;99987.69;5059247;28;22155;-56
2022/04/20 09:19:55;;;;;;;8.63;3.47;;;;;;;11.93;58.99;99978.16;5066232;28;20678;-57
2022/04/20 09:22:26;;;;;;;5.53;3.40;;;;;;;11.98;58.92;100005.75;5054868;28;20187;-55
2022/04/20 09:24:59;;;;;;;5.83;3.17;;;;;;;11.95;58.43;99985.00;5055020;28;20563;-57
2022/04/20 09:27:27;;;;;;;9.63;3.70;;;;;;;11.96;58.55;99978.94;5052829;28;20190;-58
2022/04/20 09:29:59;;;;;;;3.30;3.00;;;;;;;11.97;59.26;99992.78;5066360;28;20659;-57
2022/04/20 09:32:37;;;;;;;3.60;3.33;;;;;;;11.88;58.53;99988.63;5056463;28;20281;-56
2022/04/20 09:35:05;;;;;;;3.17;2.87;;;;;;;11.96;58.92;99980.69;5055435;28;20724;-54
2022/04/20 09:37:31;;;;;;;3.30;2.87;;;;;;;12.09;58.46;99983.94;5065473;28;20606;-58
2022/04/20 09:39:57;;;;;;;3.40;3.10;;;;;;;12.15;58.09;99994.19;5060956;28;20297;-57
2022/04/20 09:42:24;;;;;;;6.90;3.07;;;;;;;12.15;57.20;99984.69;5059025;28;20726;-57
2022/04/20 09:44:54;;;;;;;24.73;5.50;;;;;;;12.18;58.30;99992.38;5061611;28;20280;-56
2022/04/20 09:50:18;;;;;;;6.40;3.30;;;;;;;12.20;59.24;99976.78;5057844;28;20296;-57
2022/04/20 09:52:48;;;;;;;3.83;3.10;;;;;;;12.22;58.01;99981.94;5058149;28;20656;-56
2022/04/20 09:55:18;;;;;;;3.27;2.93;;;;;;;12.29;58.38;99971.41;5052886;28;20289;-57
2022/04/20 09:57:43;;;;;;;4.20;3.03;;;;;;;12.42;58.35;99973.72;5057887;28;20200;-58
2022/04/20 10:00:15;;;;;;;7.10;3.33;;;;;;;12.50;56.99;99971.84;5058511;28;20206;-58
2022/04/20 10:02:46;;;;;;;6.67;3.20;;;;;;;12.48;57.24;99971.00;5055991;28;20194;-56
2022/04/20 10:05:12;;;;;;;4.60;3.03;;;;;;;12.47;56.30;99971.91;5054252;28;20243;-58
2022/04/20 10:07:38;;;;;;;4.33;2.60;;;;;;;12.57;56.32;99972.53;5055387;28;20603;-56
2022/04/20 10:10:04;;;;;;;2.90;2.70;;;;;;;12.66;56.65;99964.53;5058086;28;20215;-56
2022/04/20 10:12:33;;;;;;;4.13;2.90;;;;;;;12.71;56.92;99970.50;5065520;28;20183;-57
2022/04/20 10:17:50;;;;;;;3.63;2.87;;;;;;;12.67;55.85;99952.44;5057333;28;20203;-57
2022/04/20 10:20:16;;;;;;;3.80;2.60;;;;;;;12.75;55.56;99959.16;5054750;28;20221;-57
2022/04/20 10:22:43;;;;;;;7.50;2.87;;;;;;;12.68;54.49;99957.56;5057911;28;20278;-56
2022/04/20 10:25:11;;;;;;;3.93;2.83;;;;;;;12.75;55.20;99953.97;5058890;28;20209;-56
2022/04/20 10:27:56;;;;;;;2.90;2.70;;;;;;;12.77;55.11;99953.91;5059027;28;20258;-57
2022/04/20 10:30:37;;;;;;;2.57;2.37;;;;;;;12.83;54.94;99958.97;5059271;28;20211;-56
2022/04/20 10:33:12;;;;;;;9.00;3.00;;;;;;;12.86;55.57;99956.28;5059411;28;20557;-57
2022/04/20 10:35:55;;;;;;;2.93;2.73;;;;;;;12.96;53.99;99946.53;5052383;28;20189;-55
2022/04/20 10:38:21;;;;;;;6.10;2.90;;;;;;;12.96;53.99;99954.31;5059239;28;20213;-56
2022/04/20 10:41:19;;;;;;;4.47;2.77;;;;;;;13.00;54.11;99950.78;5059671;28;20211;-55
2022/04/20 10:43:46;;;;;;;2.80;2.57;;;;;;;13.01;53.68;99938.66;5042936;28;20611;-56
2022/04/20 10:46:19;;;;;;;2.93;2.73;;;;;;;12.99;52.77;99925.69;5054234;28;20230;-56
2022/04/20 10:48:48;;;;;;;5.30;2.83;;;;;;;13.01;54.15;99923.91;5055014;28;20190;-57
2022/04/20 10:51:18;;;;;;;8.30;2.63;;;;;;;13.10;54.69;99922.81;5059123;28;20210;-56
2022/04/20 10:53:47;;;;;;;3.77;2.50;;;;;;;13.14;53.14;99918.41;5052546;28;20186;-56
2022/04/20 10:56:13;;;;;;;4.37;2.60;;;;;;;13.25;53.24;99916.38;5053798;28;20679;-56
2022/04/20 10:59:10;;;;;;;2.60;2.40;;;;;;;13.36;53.87;99910.88;5064057;28;20187;-57
2022/04/20 11:02:06;;;;;;;4.40;2.53;;;;;;;13.48;52.95;99907.16;5051791;28;20286;-56
2022/04/20 11:04:36;;;;;;;3.13;2.47;;;;;;;13.54;53.83;99900.03;5041863;28;20668;-57
2022/04/20 11:07:06;;;;;;;3.27;2.53;;;;;;;13.57;53.22;99899.09;5054465;28;20217;-56
2022/04/20 11:09:41;;;;;;;3.83;2.30;;;;;;;13.72;52.67;99898.66;5059600;28;20218;-55
2022/04/20 11:21:02;;;;;;;3.10;2.80;;;;;;;14.22;53.31;99881.63;5053481;28;20264;-56
2022/04/20 11:23:54;;;;;;;4.43;2.50;;;;;;;14.14;52.51;99888.81;5055274;28;20197;-57
2022/04/20 11:26:25;;;;;;;3.93;2.67;;;;;;;14.05;53.51;99895.16;5061627;28;20649;-55
2022/04/20 11:29:08;;;;;;;3.43;2.43;;;;;;;14.10;53.79;99877.63;5054515;28;20198;-55
2022/04/20 11:31:38;;;;;;;2.57;2.37;;;;;;;14.13;53.71;99868.91;5059654;28;20186;-56
2022/04/20 11:34:05;;;;;;;3.17;2.47;;;;;;;14.39;54.25;99877.63;5065687;28;20252;-56
2022/04/20 11:36:30;;;;;;;3.10;2.80;;;;;;;14.33;52.32;99873.47;5055000;28;20242;-55
2022/04/20 11:38:56;;;;;;;3.27;2.50;;;;;;;14.44;52.79;99875.75;5053570;28;20192;-56
2022/04/20 11:41:21;;;;;;;4.57;3.10;;;;;;;14.56;53.17;99869.28;5055589;28;20209;-56
2022/04/20 11:43:49;;;;;;;3.47;3.00;;;;;;;14.50;53.30;99875.53;5052488;28;20194;-56
2022/04/20 11:46:15;;;;;;;3.20;2.87;;;;;;;14.55;52.78;99857.16;5052662;28;20712;-55
2022/04/20 11:48:54;;;;;;;3.30;3.00;;;;;;;14.67;53.11;99866.34;5059074;28;20197;-55
2022/04/20 11:51:25;;;;;;;3.93;2.73;;;;;;;14.80;53.57;99864.22;5053547;28;20208;-54
2022/04/20 11:53:52;;;;;;;3.97;2.57;;;;;;;14.88;53.99;99857.84;5057114;28;20182;-55
2022/04/20 11:56:40;;;;;;;4.50;3.00;;;;;;;15.02;53.20;99856.53;5049836;28;20240;-55
2022/04/20 11:59:08;;;;;;;3.07;2.70;;;;;;;15.07;53.21;99855.47;5055746;28;20245;-54
2022/04/20 12:01:38;;;;;;;3.30;2.57;;;;;;;15.09;52.86;99853.66;5058134;28;20663;-55
2022/04/20 12:04:14;;;;;;;4.03;2.77;;;;;;;15.24;52.11;99846.22;5064093;28;20185;-54
2022/04/20 12:06:48;;;;;;;2.80;2.20;;;;;;;15.05;51.90;99854.66;5054182;28;20325;-54
2022/04/20 12:09:14;;;;;;;3.53;2.80;;;;;;;15.06;52.24;99853.75;5060357;28;21170;-56